Time;durP1;ratioP1;P1;durP2;ratioP2;P2;SDS_P1;SDS_P2;PMS_P1;PMS_P2;Temp;Humidity;BMP_temperature;BMP_pressure;BME280_temperature;BME280_humidity;BME280_pressure;Samples;Min_cycle;Max_cycle;Signal;HPM_P1;HPM_P2
2022/08/11 00:01:47;;;;;;;6.47;2.80;;;18.70;99.90;;;;;;5029710;28;20191;-61
2022/08/11 00:04:15;;;;;;;4.97;2.90;;;18.70;99.90;;;;;;5014917;28;20160;-61
2022/08/11 00:06:43;;;;;;;3.35;2.83;;;18.60;99.90;;;;;;5014739;28;20187;-61
2022/08/11 00:09:17;;;;;;;4.80;2.85;;;18.50;99.90;;;;;;4996614;28;20337;-61
2022/08/11 00:11:54;;;;;;;3.53;2.63;;;18.50;99.90;;;;;;4996734;28;20195;-61
2022/08/11 00:14:25;;;;;;;4.13;2.63;;;18.50;99.90;;;;;;5013988;28;20222;-61
2022/08/11 00:17:00;;;;;;;4.68;2.58;;;18.40;99.90;;;;;;5015053;28;20614;-61
2022/08/11 00:19:31;;;;;;;5.95;2.70;;;18.50;99.90;;;;;;5029370;28;20199;-60
2022/08/11 00:21:58;;;;;;;3.15;2.40;;;18.50;99.90;;;;;;4996558;28;20168;-61
2022/08/11 00:24:30;;;;;;;4.22;2.72;;;18.40;99.90;;;;;;5014455;28;20159;-61
2022/08/11 00:26:57;;;;;;;4.78;2.60;;;18.40;99.90;;;;;;5014618;28;20187;-61
2022/08/11 00:29:22;;;;;;;3.13;2.50;;;18.40;99.90;;;;;;5013989;28;20195;-61
2022/08/11 00:31:51;;;;;;;4.80;3.10;;;18.30;99.90;;;;;;5014201;28;20564;-61
2022/08/11 00:34:26;;;;;;;5.60;2.70;;;18.30;99.90;;;;;;5014011;28;20649;-61
2022/08/11 00:36:59;;;;;;;5.55;2.70;;;18.30;99.90;;;;;;5014091;28;20180;-61
2022/08/11 00:39:26;;;;;;;5.07;2.72;;;18.20;99.90;;;;;;5028995;28;20199;-61
2022/08/11 00:42:25;;;;;;;6.82;2.40;;;18.20;99.90;;;;;;5014144;28;20663;-61
2022/08/11 00:45:17;;;;;;;4.40;2.70;;;18.10;99.90;;;;;;4996043;28;20226;-61
2022/08/11 00:48:09;;;;;;;4.97;2.92;;;18.10;99.90;;;;;;5014194;28;20164;-61
2022/08/11 00:51:22;;;;;;;5.38;2.53;;;18.00;99.90;;;;;;5013723;28;20699;-61
2022/08/11 00:53:58;;;;;;;4.45;2.53;;;17.90;99.90;;;;;;4986973;28;20195;-61
2022/08/11 00:56:30;;;;;;;5.80;2.80;;;17.90;99.90;;;;;;5013583;28;20215;-61
2022/08/11 00:59:07;;;;;;;3.17;2.85;;;17.80;99.90;;;;;;5012536;28;20246;-61
2022/08/11 01:01:36;;;;;;;3.83;2.97;;;17.70;99.90;;;;;;5013548;28;20168;-61
2022/08/11 01:04:29;;;;;;;5.95;3.08;;;17.60;99.90;;;;;;4995981;28;20184;-61
2022/08/11 01:07:10;;;;;;;7.47;3.03;;;17.50;99.90;;;;;;5013549;28;20187;-61
2022/08/11 01:09:54;;;;;;;5.25;3.30;;;17.50;99.90;;;;;;5013517;28;20290;-61
2022/08/11 01:12:29;;;;;;;5.30;3.40;;;17.40;99.90;;;;;;5013759;28;20180;-61
2022/08/11 01:15:32;;;;;;;5.57;3.20;;;17.40;99.90;;;;;;5013359;28;20566;-61
2022/08/11 01:18:26;;;;;;;6.13;3.65;;;17.30;99.90;;;;;;5013894;28;20270;-62
2022/08/11 01:20:51;;;;;;;4.28;3.38;;;17.30;99.90;;;;;;5013339;28;20200;-61
2022/08/11 01:23:54;;;;;;;5.15;3.45;;;17.30;99.90;;;;;;5014306;28;20672;-61
2022/08/11 01:26:52;;;;;;;5.82;3.60;;;17.30;99.90;;;;;;5014001;28;20507;-61
2022/08/11 01:29:30;;;;;;;4.93;3.30;;;17.20;99.90;;;;;;5013238;28;20261;-61
2022/08/11 01:32:02;;;;;;;7.05;3.60;;;17.20;99.90;;;;;;4995852;28;20203;-62
2022/08/11 01:35:01;;;;;;;4.85;3.40;;;17.10;99.90;;;;;;5013552;28;20218;-61
2022/08/11 01:37:56;;;;;;;5.95;3.38;;;17.10;99.90;;;;;;4995833;28;20190;-61
2022/08/11 01:40:40;;;;;;;4.90;4.00;;;17.10;99.90;;;;;;5013442;28;20263;-61
2022/08/11 01:46:56;;;;;;;10.95;3.75;;;17.10;99.90;;;;;;4983508;28;20242;-61
2022/08/11 01:49:28;;;;;;;3.78;3.03;;;17.00;99.90;;;;;;5013024;28;20203;-61
2022/08/11 01:52:26;;;;;;;5.53;3.72;;;17.00;99.90;;;;;;5012999;28;20195;-61
2022/08/11 01:55:07;;;;;;;4.82;3.55;;;16.90;99.90;;;;;;5012370;28;20188;-61
2022/08/11 01:57:55;;;;;;;7.00;3.60;;;16.90;99.90;;;;;;4995291;28;20199;-61
2022/08/11 02:00:27;;;;;;;4.45;3.35;;;16.80;99.90;;;;;;5028098;28;20208;-61
2022/08/11 02:03:15;;;;;;;3.83;3.42;;;16.80;99.90;;;;;;5013356;28;20186;-61
2022/08/11 02:05:41;;;;;;;8.75;4.00;;;16.80;99.90;;;;;;5013381;28;20512;-61
2022/08/11 02:08:40;;;;;;;5.22;3.50;;;16.70;99.90;;;;;;5013187;28;20204;-62
2022/08/11 02:11:29;;;;;;;5.22;3.97;;;16.70;99.90;;;;;;5016748;28;20192;-62
2022/08/11 02:14:20;;;;;;;5.35;3.65;;;16.60;99.90;;;;;;5031454;28;20208;-61
2022/08/11 02:17:09;;;;;;;5.10;3.50;;;16.50;99.90;;;;;;5016920;28;20172;-61
2022/08/11 02:25:41;;;;;;;4.90;3.97;;;16.30;99.90;;;;;;5016442;28;20160;-61
2022/08/11 02:28:51;;;;;;;4.95;3.88;;;16.20;99.90;;;;;;5016183;28;20192;-61
2022/08/11 02:34:26;;;;;;;5.32;4.20;;;16.20;99.90;;;;;;5016474;28;20691;-61
2022/08/11 02:37:02;;;;;;;4.60;3.83;;;16.20;99.90;;;;;;5016055;28;20184;-61
2022/08/11 02:39:41;;;;;;;4.70;3.63;;;16.20;99.90;;;;;;5015946;28;20194;-61
2022/08/11 02:42:28;;;;;;;5.80;4.07;;;16.10;99.90;;;;;;5016235;28;20156;-61
2022/08/11 02:45:15;;;;;;;7.03;4.00;;;16.10;99.90;;;;;;5015946;28;20160;-61
2022/08/11 02:49:52;;;;;;;4.88;4.00;;;16.00;99.90;;;;;;5015694;28;20649;-61
2022/08/11 02:50:41;;;;;;;5.43;3.75;;;16.00;99.90;;;;;;5015037;28;20246;-61
2022/08/11 02:53:30;;;;;;;5.15;3.92;;;16.00;99.90;;;;;;5015797;28;20218;-61
2022/08/11 02:56:07;;;;;;;5.40;4.10;;;16.00;99.90;;;;;;4997890;28;20683;-61
2022/08/11 02:59:49;;;;;;;5.70;3.90;;;15.90;99.90;;;;;;5015653;28;20192;-61
2022/08/11 03:01:52;;;;;;;6.88;3.97;;;15.90;99.90;;;;;;5015329;28;20183;-61
2022/08/11 03:04:51;;;;;;;5.07;4.15;;;15.90;99.90;;;;;;5016032;28;20574;-61
2022/08/11 03:07:39;;;;;;;5.95;4.10;;;15.90;99.90;;;;;;4984855;28;20204;-61
2022/08/11 03:10:29;;;;;;;9.88;4.07;;;15.90;99.90;;;;;;5015384;28;20210;-61
2022/08/11 03:19:15;;;;;;;5.53;3.78;;;15.90;99.90;;;;;;5015268;28;20695;-69
2022/08/11 03:22:16;;;;;;;5.40;3.92;;;15.80;99.90;;;;;;4996894;28;20172;-68
2022/08/11 03:24:54;;;;;;;5.15;4.20;;;15.80;99.90;;;;;;4983568;28;20183;-69
2022/08/11 03:27:32;;;;;;;6.93;4.15;;;15.70;99.90;;;;;;5015337;28;20622;-68
2022/08/11 03:30:18;;;;;;;6.40;3.92;;;15.60;99.90;;;;;;4997296;28;20681;-68
2022/08/11 03:36:23;;;;;;;5.05;3.95;;;15.50;99.90;;;;;;5015413;28;20170;-68
2022/08/11 03:39:05;;;;;;;5.35;3.70;;;15.50;99.90;;;;;;5014924;28;20191;-69
2022/08/11 03:41:43;;;;;;;5.95;4.00;;;15.40;99.90;;;;;;5015082;28;20194;-70
2022/08/11 03:44:40;;;;;;;6.88;3.95;;;15.30;99.90;;;;;;4997160;28;20179;-69
2022/08/11 03:47:28;;;;;;;7.13;4.57;;;15.20;99.90;;;;;;5015578;28;20232;-68
2022/08/11 03:50:00;;;;;;;5.72;4.53;;;15.20;99.90;;;;;;5015284;28;20180;-68
2022/08/11 03:53:05;;;;;;;9.15;4.50;;;15.20;99.90;;;;;;4997262;28;20168;-68
2022/08/11 03:56:08;;;;;;;8.50;4.30;;;15.20;99.90;;;;;;4991698;28;20214;-66
2022/08/11 03:59:04;;;;;;;5.40;4.28;;;15.20;99.90;;;;;;5014556;28;20196;-67
2022/08/11 04:01:54;;;;;;;6.47;4.28;;;15.20;99.90;;;;;;4996925;28;20199;-66
2022/08/11 04:04:48;;;;;;;5.38;4.15;;;15.20;99.90;;;;;;5014571;28;20156;-67
2022/08/11 04:07:32;;;;;;;6.55;4.55;;;15.20;99.90;;;;;;5014269;28;20184;-61
2022/08/11 04:10:09;;;;;;;6.90;4.47;;;15.20;99.90;;;;;;5014357;28;20178;-62
2022/08/11 04:12:57;;;;;;;6.55;4.20;;;15.20;99.90;;;;;;5014493;28;20186;-61
2022/08/11 04:16:01;;;;;;;6.82;4.25;;;15.10;99.90;;;;;;5014160;28;20172;-61
2022/08/11 04:19:04;;;;;;;7.28;4.38;;;15.10;99.90;;;;;;5014119;28;20195;-61
2022/08/11 04:22:00;;;;;;;9.30;4.80;;;15.10;99.90;;;;;;5014457;28;20180;-61
2022/08/11 04:24:46;;;;;;;6.50;4.68;;;15.10;99.90;;;;;;5014204;28;20641;-61
2022/08/11 04:27:25;;;;;;;7.97;4.80;;;15.10;99.90;;;;;;5003737;28;20219;-61
2022/08/11 04:30:28;;;;;;;7.05;4.82;;;15.00;99.90;;;;;;5028887;28;20827;-61
2022/08/11 04:33:15;;;;;;;5.18;4.15;;;14.90;99.90;;;;;;5014064;28;20207;-61
2022/08/11 04:35:49;;;;;;;8.82;4.75;;;14.90;99.90;;;;;;5013938;28;20200;-61
2022/08/11 04:38:49;;;;;;;6.10;4.30;;;14.90;99.90;;;;;;5014045;28;20746;-61
2022/08/11 04:41:31;;;;;;;9.50;4.80;;;14.90;99.90;;;;;;5014601;28;20171;-62
2022/08/11 04:44:28;;;;;;;9.73;4.50;;;14.90;99.90;;;;;;5013820;28;20521;-62
2022/08/11 04:47:00;;;;;;;8.27;5.10;;;14.90;99.90;;;;;;5014606;28;20168;-62
2022/08/11 05:02:05;;;;;;;6.13;4.97;;;14.90;99.90;;;;;;5013695;28;20167;-61
2022/08/11 05:08:02;;;;;;;9.82;4.88;;;15.10;99.90;;;;;;4998023;28;20261;-61
2022/08/11 05:10:39;;;;;;;5.88;4.57;;;15.20;99.90;;;;;;5013533;28;20721;-61
2022/08/11 05:36:06;;;;;;;6.90;5.05;;;15.80;99.90;;;;;;5014080;28;20174;-61
2022/08/11 05:58:10;;;;;;;8.90;5.68;;;16.40;99.90;;;;;;4997566;28;20550;-62
2022/08/11 06:00:44;;;;;;;5.80;5.20;;;16.50;99.90;;;;;;4996874;28;20180;-61
2022/08/11 06:03:19;;;;;;;8.65;5.43;;;16.60;99.90;;;;;;4997054;28;20180;-61
2022/08/11 06:05:46;;;;;;;11.00;5.55;;;16.70;99.90;;;;;;4996987;28;20680;-61
2022/08/11 06:08:13;;;;;;;8.27;5.78;;;16.80;99.90;;;;;;5013676;28;20218;-61
2022/08/11 06:10:42;;;;;;;13.20;5.50;;;16.80;99.90;;;;;;5016393;28;20223;-61
2022/08/11 06:13:13;;;;;;;6.85;4.93;;;16.90;99.90;;;;;;5016785;28;20165;-61
2022/08/11 06:15:51;;;;;;;5.72;4.60;;;17.00;99.90;;;;;;5016350;28;20180;-61
2022/08/11 06:18:19;;;;;;;6.45;4.32;;;17.10;99.90;;;;;;5016326;28;20666;-61
2022/08/11 06:20:50;;;;;;;8.10;4.70;;;17.20;99.90;;;;;;5031439;28;20175;-61
2022/08/11 06:23:19;;;;;;;5.72;4.47;;;17.30;99.90;;;;;;5016468;28;20683;-61
2022/08/11 06:25:46;;;;;;;6.70;4.80;;;17.40;99.90;;;;;;5031428;28;20179;-61
2022/08/11 06:28:14;;;;;;;6.85;4.40;;;17.50;99.90;;;;;;5016476;28;20203;-61
2022/08/11 06:30:43;;;;;;;5.65;4.80;;;17.60;99.90;;;;;;4998207;28;20214;-62
2022/08/11 06:33:19;;;;;;;8.88;4.82;;;17.70;99.90;;;;;;5016832;28;20263;-61
2022/08/11 06:36:03;;;;;;;7.88;4.97;;;17.80;99.90;;;;;;5016308;28;20182;-61
2022/08/11 06:38:32;;;;;;;7.10;4.18;;;18.00;99.90;;;;;;5015903;28;20291;-61
2022/08/11 06:44:15;;;;;;;5.18;4.03;;;18.20;99.90;;;;;;5016160;28;20708;-61
2022/08/11 06:46:50;;;;;;;5.57;4.30;;;18.30;99.90;;;;;;5015584;28;20648;-61
2022/08/11 06:52:15;;;;;;;5.40;4.35;;;18.50;99.90;;;;;;5016043;28;20202;-61
2022/08/11 06:54:49;;;;;;;4.70;3.70;;;18.60;99.90;;;;;;5015669;28;20199;-61
2022/08/11 07:03:00;;;;;;;4.65;3.58;;;18.90;99.90;;;;;;5015827;28;20175;-61
2022/08/11 07:05:43;;;;;;;7.25;4.50;;;19.00;99.90;;;;;;5016079;28;20195;-61
2022/08/11 07:16:56;;;;;;;5.68;4.18;;;19.50;99.90;;;;;;5015858;28;20167;-61
2022/08/11 07:30:57;;;;;;;5.53;4.00;;;20.00;99.90;;;;;;5015052;28;20207;-61
2022/08/11 07:33:31;;;;;;;5.10;3.78;;;20.20;99.90;;;;;;5030353;28;20676;-62
2022/08/11 07:35:59;;;;;;;4.95;3.75;;;20.20;99.90;;;;;;5015247;28;20246;-61
2022/08/11 07:38:44;;;;;;;6.07;3.70;;;20.40;99.90;;;;;;5014758;28;20203;-61
2022/08/11 07:41:15;;;;;;;7.50;3.97;;;20.50;99.90;;;;;;5014894;28;20160;-61
2022/08/11 07:43:43;;;;;;;5.72;3.65;;;20.60;99.90;;;;;;5014904;28;20172;-61
2022/08/11 07:54:27;;;;;;;6.75;3.60;;;21.00;99.90;;;;;;5015174;28;20227;-61
2022/08/11 07:56:53;;;;;;;7.88;4.28;;;21.20;99.90;;;;;;4997018;28;20294;-61
2022/08/11 08:18:38;;;;;;;4.90;3.35;;;22.40;99.90;;;;;;5014994;28;20318;-61
2022/08/11 08:21:11;;;;;;;6.55;4.10;;;22.60;99.90;;;;;;5014590;28;20187;-62
2022/08/11 08:23:45;;;;;;;6.63;3.50;;;22.70;99.90;;;;;;5014268;28;20617;-61
2022/08/11 08:32:10;;;;;;;7.55;3.65;;;23.20;99.90;;;;;;4973174;28;20220;-65
2022/08/11 08:34:36;;;;;;;6.75;3.50;;;23.40;99.90;;;;;;4973278;28;20606;-65
2022/08/11 08:37:04;;;;;;;4.60;3.42;;;23.50;99.90;;;;;;4993044;28;20219;-62
2022/08/11 08:39:36;;;;;;;5.32;3.30;;;23.70;99.90;;;;;;5013827;28;20191;-62
2022/08/11 08:42:10;;;;;;;5.90;3.45;;;23.80;99.90;;;;;;5013979;28;20648;-62
2022/08/11 08:44:41;;;;;;;4.95;3.35;;;24.00;99.90;;;;;;5014108;28;20192;-62
2022/08/11 08:47:12;;;;;;;4.50;3.40;;;24.10;99.90;;;;;;5029315;28;20163;-62
2022/08/11 08:49:47;;;;;;;4.22;3.50;;;24.20;99.90;;;;;;4996033;28;20195;-62
2022/08/11 08:52:15;;;;;;;7.32;3.80;;;24.40;99.90;;;;;;5013960;28;20190;-62
2022/08/11 08:54:43;;;;;;;6.18;3.35;;;24.60;99.90;;;;;;5013727;28;20259;-62
2022/08/11 08:57:10;;;;;;;6.43;3.28;;;24.70;99.90;;;;;;5013667;28;20704;-62
2022/08/11 08:59:43;;;;;;;4.97;3.40;;;24.90;99.90;;;;;;5013495;28;20210;-62
2022/08/11 09:02:11;;;;;;;5.70;3.50;;;25.10;99.90;;;;;;5013372;28;20310;-62
2022/08/11 09:04:39;;;;;;;7.03;3.17;;;25.30;99.90;;;;;;5013558;28;20258;-62
2022/08/11 09:07:17;;;;;;;6.63;3.45;;;25.50;99.90;;;;;;5013528;28;20232;-62
2022/08/11 09:09:48;;;;;;;4.13;3.13;;;25.70;99.90;;;;;;5028691;28;20684;-62
2022/08/11 09:12:15;;;;;;;8.18;2.92;;;26.00;99.90;;;;;;5013645;28;20203;-62
2022/08/11 09:15:00;;;;;;;4.30;2.90;;;26.20;99.90;;;;;;5013559;28;20172;-62
2022/08/11 09:17:28;;;;;;;7.30;3.30;;;26.40;99.90;;;;;;5013526;28;20176;-62
2022/08/11 09:20:16;;;;;;;3.15;2.55;;;26.60;99.90;;;;;;4998281;28;20202;-62
2022/08/11 09:28:17;;;;;;;4.78;2.70;;;27.20;99.90;;;;;;5017742;28;20233;-62
2022/08/11 09:30:46;;;;;;;5.45;2.72;;;27.40;99.90;;;;;;5017136;28;20207;-62
2022/08/11 09:33:15;;;;;;;8.20;3.17;;;27.60;99.90;;;;;;5017286;28;20178;-62
2022/08/11 09:35:42;;;;;;;7.13;3.20;;;27.70;99.90;;;;;;5017204;28;20172;-62
2022/08/11 09:40:58;;;;;;;4.10;3.08;;;28.00;99.90;;;;;;5017317;28;20210;-62
2022/08/11 09:46:11;;;;;;;3.67;2.67;;;28.30;99.90;;;;;;5016766;28;20535;-62
2022/08/11 09:48:41;;;;;;;3.55;3.20;;;28.40;99.90;;;;;;5016838;28;20196;-62
2022/08/11 09:51:08;;;;;;;4.80;2.90;;;28.50;99.90;;;;;;5017145;28;20187;-62
2022/08/11 09:53:38;;;;;;;6.18;2.80;;;28.60;99.90;;;;;;5016834;28;20199;-62
2022/08/11 09:59:09;;;;;;;3.88;2.83;;;28.70;99.90;;;;;;5016669;28;20199;-62
2022/08/11 10:01:50;;;;;;;3.67;3.08;;;28.60;99.90;;;;;;5016472;28;20263;-62
2022/08/11 10:04:45;;;;;;;4.13;3.13;;;28.60;99.90;;;;;;5016643;28;20183;-62
2022/08/11 10:07:14;;;;;;;5.28;3.35;;;28.70;99.90;;;;;;5009879;28;20653;-62
2022/08/11 10:09:50;;;;;;;5.25;3.03;;;28.70;99.90;;;;;;5017494;28;20203;-62
2022/08/11 10:12:34;;;;;;;5.15;3.03;;;28.80;99.90;;;;;;5016413;28;20230;-62
2022/08/11 10:15:33;;;;;;;5.05;3.00;;;28.90;99.90;;;;;;5016301;28;20630;-62
2022/08/11 10:21:08;;;;;;;3.35;2.60;;;28.90;99.90;;;;;;5017056;28;20171;-62
2022/08/11 10:34:43;;;;;;;4.88;2.83;;;29.00;99.90;;;;;;5016259;28;20210;-62
2022/08/11 10:37:09;;;;;;;4.32;2.80;;;29.00;99.90;;;;;;5016110;28;20183;-62
2022/08/11 10:39:38;;;;;;;2.83;2.40;;;29.00;99.90;;;;;;5015948;28;20673;-62
2022/08/11 10:44:52;;;;;;;4.22;2.80;;;29.20;99.90;;;;;;5016334;28;20217;-62
2022/08/11 10:47:34;;;;;;;4.78;3.00;;;29.30;99.90;;;;;;4998153;28;20176;-62
2022/08/11 11:01:04;;;;;;;4.55;2.97;;;29.40;99.90;;;;;;5015605;28;20170;-62
2022/08/11 11:03:33;;;;;;;3.35;2.47;;;29.40;99.90;;;;;;5015661;28;20179;-62
2022/08/11 11:06:28;;;;;;;5.03;3.10;;;29.40;99.90;;;;;;5015577;28;20214;-62
2022/08/11 11:09:03;;;;;;;5.75;3.25;;;29.40;99.90;;;;;;5015555;28;20200;-62
2022/08/11 11:19:38;;;;;;;4.28;3.00;;;29.70;99.90;;;;;;5016561;28;20196;-62
2022/08/11 11:25:15;;;;;;;3.65;3.03;;;29.90;99.90;;;;;;5015847;28;20636;-62
2022/08/11 11:27:43;;;;;;;3.70;3.15;;;30.10;99.90;;;;;;5015334;28;20756;-62
2022/08/11 11:30:13;;;;;;;3.70;3.15;;;30.30;99.90;;;;;;5015118;28;20180;-62
2022/08/11 11:32:48;;;;;;;5.00;2.85;;;30.50;99.90;;;;;;4997506;28;20170;-62
2022/08/11 11:35:29;;;;;;;6.63;3.00;;;30.60;99.90;;;;;;5015256;28;20242;-62
2022/08/11 11:37:57;;;;;;;4.95;2.78;;;30.70;99.90;;;;;;5014918;28;20751;-62
2022/08/11 11:40:24;;;;;;;3.95;3.13;;;30.70;99.90;;;;;;5015033;28;20176;-62
2022/08/11 11:42:53;;;;;;;4.75;3.22;;;30.70;99.90;;;;;;5014369;28;20681;-63
2022/08/11 11:45:21;;;;;;;6.18;3.40;;;30.70;99.90;;;;;;5014729;28;20186;-63
2022/08/11 11:47:52;;;;;;;4.10;3.20;;;30.60;99.90;;;;;;4997661;28;20683;-63
2022/08/11 11:50:33;;;;;;;4.45;3.17;;;30.70;99.90;;;;;;5030212;28;20622;-62
2022/08/11 11:53:04;;;;;;;3.50;2.92;;;30.70;99.90;;;;;;5030158;28;20653;-62
2022/08/11 11:55:30;;;;;;;3.40;2.72;;;30.90;99.90;;;;;;5014901;28;20546;-63
2022/08/11 12:03:31;;;;;;;5.05;2.85;;;31.50;99.70;;;;;;5014941;28;20191;-62
2022/08/11 12:05:57;;;;;;;4.55;2.70;;;31.50;99.80;;;;;;4996943;28;20184;-62
2022/08/11 12:08:24;;;;;;;10.00;3.03;;;31.70;99.90;;;;;;5014303;28;20208;-62
2022/08/11 12:13:39;;;;;;;4.75;2.80;;;31.80;99.90;;;;;;5014231;28;20195;-62
2022/08/11 12:13:44;;;;;;;5.80;2.83;;;31.90;99.90;;;;;;5013852;28;20171;-62
2022/08/11 12:16:12;;;;;;;4.85;3.00;;;32.10;99.90;;;;;;5014117;28;20187;-62
2022/08/11 12:18:40;;;;;;;4.78;2.90;;;32.30;99.90;;;;;;5014052;28;20191;-63
2022/08/11 12:21:08;;;;;;;6.57;3.28;;;32.40;99.90;;;;;;5014202;28;20172;-62
2022/08/11 12:29:08;;;;;;;4.68;2.88;;;32.80;99.90;;;;;;5014506;28;20206;-62
2022/08/11 12:31:36;;;;;;;6.03;2.60;;;32.90;99.90;;;;;;5013857;28;20208;-63
2022/08/11 12:34:14;;;;;;;4.78;2.58;;;33.10;99.10;;;;;;5013902;28;20172;-63
2022/08/11 12:36:50;;;;;;;3.28;2.78;;;33.20;96.90;;;;;;5013933;28;20179;-63
2022/08/11 12:45:26;;;;;;;3.72;2.97;;;33.20;97.20;;;;;;5013923;28;20206;-63
2022/08/11 12:53:18;;;;;;;3.88;2.92;;;34.00;96.00;;;;;;5014388;28;20171;-62
2022/08/11 12:58:28;;;;;;;5.30;2.95;;;33.90;97.20;;;;;;5013819;28;20285;-62
2022/08/11 13:06:26;;;;;;;5.43;2.80;;;34.20;93.00;;;;;;5013749;28;20383;-62
2022/08/11 13:08:56;;;;;;;4.25;2.30;;;34.30;93.00;;;;;;5013476;28;20195;-62
2022/08/11 13:14:08;;;;;;;4.05;2.83;;;34.30;94.30;;;;;;5013634;28;20206;-62
2022/08/11 13:17:20;;;;;;;4.93;2.60;;;34.30;93.50;;;;;;5013228;28;20160;-63
2022/08/11 13:19:22;;;;;;;5.05;2.83;;;34.50;92.60;;;;;;5013182;28;20199;-62
2022/08/11 13:21:50;;;;;;;3.75;2.67;;;34.50;93.00;;;;;;5013614;28;20629;-63
2022/08/11 13:24:17;;;;;;;7.13;3.17;;;34.50;92.50;;;;;;5029062;28;20246;-65
2022/08/11 13:26:44;;;;;;;4.10;3.05;;;34.50;92.30;;;;;;5013390;28;20187;-65
2022/08/11 13:29:11;;;;;;;5.97;2.80;;;34.50;91.90;;;;;;5013352;28;20226;-65
2022/08/11 13:31:38;;;;;;;2.85;2.40;;;34.70;91.70;;;;;;5013335;28;20195;-65
2022/08/11 13:34:07;;;;;;;2.80;2.42;;;34.70;92.40;;;;;;5013439;28;20200;-65
2022/08/11 13:36:34;;;;;;;3.95;2.50;;;34.80;92.70;;;;;;5013288;28;20592;-65
2022/08/11 13:39:02;;;;;;;5.18;3.40;;;35.00;93.40;;;;;;5013479;28;20562;-65
2022/08/11 13:41:38;;;;;;;6.15;2.50;;;35.20;90.30;;;;;;5013654;28;20203;-62
2022/08/11 13:44:13;;;;;;;4.38;2.80;;;35.20;91.80;;;;;;5013251;28;20180;-62
2022/08/11 13:46:40;;;;;;;4.25;2.45;;;35.20;92.20;;;;;;4995403;28;20176;-63
2022/08/11 13:49:10;;;;;;;5.05;2.70;;;35.30;92.40;;;;;;5013329;28;20287;-65
2022/08/11 13:51:38;;;;;;;2.83;2.40;;;35.50;91.50;;;;;;4995515;28;20247;-66
2022/08/11 13:54:18;;;;;;;3.20;2.45;;;35.60;91.50;;;;;;5013306;28;20169;-66
2022/08/11 13:56:46;;;;;;;5.22;2.88;;;35.40;90.10;;;;;;5013140;28;20203;-66
2022/08/11 13:59:19;;;;;;;3.30;2.80;;;35.20;90.90;;;;;;5014717;28;20211;-63
2022/08/11 14:01:51;;;;;;;6.03;3.30;;;35.30;90.00;;;;;;4995613;28;20172;-63
2022/08/11 14:04:29;;;;;;;5.88;3.17;;;35.50;91.40;;;;;;5013344;28;20166;-63
2022/08/11 14:06:59;;;;;;;5.50;2.83;;;35.40;90.20;;;;;;5016711;28;20202;-63
2022/08/11 14:09:27;;;;;;;5.18;2.67;;;35.30;90.00;;;;;;4998990;28;20228;-63
2022/08/11 14:14:51;;;;;;;3.45;2.60;;;35.00;87.60;;;;;;5017039;28;20234;-63
2022/08/11 14:17:19;;;;;;;6.13;3.00;;;35.00;90.50;;;;;;5016801;28;20646;-63
2022/08/11 14:19:49;;;;;;;4.10;2.67;;;35.20;90.80;;;;;;5016743;28;20669;-63
2022/08/11 14:22:16;;;;;;;4.75;2.80;;;35.30;90.60;;;;;;5016421;28;20171;-63
2022/08/11 14:24:48;;;;;;;4.95;2.67;;;35.30;89.00;;;;;;5016678;28;20259;-63
2022/08/11 14:27:15;;;;;;;3.25;2.80;;;35.30;87.50;;;;;;5017034;28;20636;-64
2022/08/11 14:29:43;;;;;;;4.78;2.75;;;35.30;89.60;;;;;;5016653;28;20261;-63
2022/08/11 14:32:13;;;;;;;3.55;2.67;;;35.10;86.50;;;;;;5016036;28;20206;-63
2022/08/11 14:34:41;;;;;;;5.63;3.22;;;35.10;85.70;;;;;;5016394;28;20156;-63
2022/08/11 14:37:12;;;;;;;6.78;2.97;;;35.20;89.10;;;;;;5016213;28;20187;-63
2022/08/11 14:39:53;;;;;;;5.30;2.70;;;35.30;87.10;;;;;;4998565;28;20195;-63
2022/08/11 14:47:56;;;;;;;4.40;3.25;;;35.60;89.20;;;;;;5015862;28;20650;-63
2022/08/11 14:50:25;;;;;;;7.35;3.15;;;35.60;88.00;;;;;;5015808;28;20176;-61
2022/08/11 14:52:59;;;;;;;3.22;2.42;;;35.30;85.90;;;;;;5015989;28;20168;-61
2022/08/11 14:58:18;;;;;;;3.92;2.70;;;35.00;85.70;;;;;;5016052;28;20199;-61
2022/08/11 15:00:45;;;;;;;3.67;2.80;;;34.80;86.60;;;;;;4998199;28;20184;-61
2022/08/11 15:03:14;;;;;;;6.57;2.72;;;35.00;91.40;;;;;;4997895;28;20180;-61
2022/08/11 15:05:51;;;;;;;5.15;2.58;;;34.80;86.90;;;;;;5015987;28;20183;-63
2022/08/11 15:08:18;;;;;;;4.15;2.67;;;34.80;86.30;;;;;;5015431;28;20684;-63
2022/08/11 15:10:47;;;;;;;4.78;2.97;;;34.50;86.80;;;;;;5015823;28;20207;-61
2022/08/11 15:13:19;;;;;;;3.38;2.83;;;34.40;87.80;;;;;;5015883;28;20223;-61
2022/08/11 15:18:31;;;;;;;5.28;2.85;;;34.10;84.30;;;;;;5014983;28;20198;-63
2022/08/11 15:37:45;;;;;;;4.10;2.92;;;33.50;89.20;;;;;;5014774;28;20715;-63
2022/08/11 15:46:22;;;;;;;3.17;2.58;;;33.30;89.40;;;;;;5014761;28;20562;-63
2022/08/11 15:49:13;;;;;;;2.95;2.75;;;33.20;87.50;;;;;;5030454;28;20743;-63
2022/08/11 15:51:46;;;;;;;6.88;2.88;;;33.10;85.00;;;;;;5006341;28;20215;-63
2022/08/11 15:54:21;;;;;;;5.18;3.28;;;32.90;87.60;;;;;;5015143;28;20160;-66
2022/08/11 15:56:50;;;;;;;5.97;3.22;;;32.80;87.60;;;;;;5014568;28;20246;-66
2022/08/11 16:04:52;;;;;;;4.60;2.67;;;32.40;86.20;;;;;;5014731;28;20530;-66
2022/08/11 16:07:26;;;;;;;4.30;2.88;;;32.40;89.90;;;;;;5014287;28;20246;-66
2022/08/11 16:09:57;;;;;;;6.45;3.40;;;32.40;87.40;;;;;;5014601;28;20218;-66
2022/08/11 16:12:34;;;;;;;5.28;2.88;;;32.20;86.50;;;;;;5014873;28;20196;-63
2022/08/11 16:18:04;;;;;;;4.75;3.13;;;31.90;87.50;;;;;;5014104;28;20291;-64
2022/08/11 16:20:31;;;;;;;4.40;3.03;;;31.60;87.60;;;;;;5014421;28;20221;-63
2022/08/11 16:23:03;;;;;;;5.50;2.70;;;31.30;86.60;;;;;;5014630;28;20187;-63
2022/08/11 16:25:33;;;;;;;3.95;2.80;;;31.10;88.70;;;;;;5014289;28;20171;-63
2022/08/11 16:28:06;;;;;;;5.72;3.13;;;31.10;90.20;;;;;;5013979;28;20230;-64
2022/08/11 16:30:34;;;;;;;3.92;2.90;;;30.90;88.00;;;;;;5014184;28;20192;-63
2022/08/11 16:33:03;;;;;;;5.30;2.88;;;30.80;88.70;;;;;;5013852;28;20176;-63
2022/08/11 16:38:34;;;;;;;10.27;2.85;;;30.60;90.00;;;;;;5014176;28;20358;-63
2022/08/11 16:41:07;;;;;;;7.68;2.90;;;30.50;90.60;;;;;;5014329;28;20167;-63
2022/08/11 16:49:17;;;;;;;4.15;3.45;;;30.10;89.40;;;;;;5015103;28;20203;-63
2022/08/11 16:51:44;;;;;;;6.00;3.50;;;30.00;90.50;;;;;;5015607;28;20191;-66
2022/08/11 16:54:12;;;;;;;4.28;3.38;;;30.00;90.90;;;;;;5015632;28;20157;-66
2022/08/11 16:56:44;;;;;;;6.55;3.55;;;30.00;91.20;;;;;;5013780;28;20671;-67
2022/08/11 16:59:16;;;;;;;5.65;3.45;;;29.90;91.10;;;;;;5013606;28;20239;-67
2022/08/11 17:01:53;;;;;;;5.60;3.20;;;29.80;91.70;;;;;;5028495;28;20180;-66
2022/08/11 17:13:41;;;;;;;4.20;2.88;;;29.60;91.60;;;;;;5014064;28;20179;-71
2022/08/11 17:16:11;;;;;;;5.43;3.55;;;29.60;90.80;;;;;;5028617;28;20215;-65
2022/08/11 17:18:39;;;;;;;5.90;3.47;;;29.60;90.70;;;;;;5013561;28;20641;-65
2022/08/11 17:21:11;;;;;;;4.78;2.88;;;29.50;90.30;;;;;;5013850;28;20187;-65
2022/08/11 17:23:50;;;;;;;6.05;3.35;;;29.50;90.60;;;;;;5013558;28;20160;-65
2022/08/11 17:29:29;;;;;;;5.43;3.00;;;29.40;90.30;;;;;;5013304;28;20252;-65
2022/08/11 17:37:31;;;;;;;3.17;2.83;;;29.20;90.40;;;;;;5013306;28;20603;-65
2022/08/11 17:40:00;;;;;;;4.97;3.28;;;29.20;91.00;;;;;;5014161;28;20218;-65
2022/08/11 17:50:48;;;;;;;5.70;3.75;;;28.90;90.80;;;;;;5017882;28;20206;-65
2022/08/11 18:01:34;;;;;;;4.38;2.80;;;28.60;91.50;;;;;;5017576;28;20576;-64
2022/08/11 18:04:04;;;;;;;4.95;3.28;;;28.60;91.70;;;;;;5017323;28;20176;-65
2022/08/11 18:06:32;;;;;;;5.15;3.13;;;28.40;91.70;;;;;;5032742;28;20188;-68
